METAR AND TAF INFORMATION
METAR FOR FAHS
ADDS - METARS form results

(0320 UTC 21 November 2019)
Data provider http://aviationweather.gov/metar/data/
 
METAR text: FAHS 210300Z AUTO 00000KT //// // ////// 19/19 Q1015
Conditions at: FAHS (HOEDSPRUIT (SAAF, ZA) observed 0300 UTC 21 November 2019
Temperature: 19.0°C (66°F)
Dewpoint: 19.0°C (66°F) [RH = 100%]
Pressure (altimeter): 29.97 inches Hg (1015.0 mb)
Winds: calm
Visibility: missing
Ceiling: unknown
Clouds: missing
Weather: no significant weather observed at this time

 AIRPORT MAP

 RUNWAY INFORMATION
Runway 09 Runway length 6939 ft Runway width 88 ft
Runway elevation 1710 ft Runway displaced threshold 0 ft Runway heading 76
Runway 27 Runway length 6939 ft Runway width 88 ft
Runway elevation 1743 ft Runway displaced threshold 0 ft Runway heading 256
Runway 18 Runway length 13095 ft Runway width 151 ft
Runway elevation 1659 ft Runway displaced threshold 0 ft Runway heading 164
Runway 36 Runway length 13095 ft Runway width 151 ft
Runway elevation 1734 ft Runway displaced threshold 0 ft Runway heading 344

 AIRPORT FREQUENCIES
Type APP Name APP Frequency 126.4 MHZ
Type TWR Name TWR Frequency 119.6 MHZ

 AIRPORT NEAR NAVIGATION AIDS
Type NDB Name Hoedspruit Frequency 265 KHZ
Type VORTAC Name Hoedspruit Frequency 114000 KHZ



The South Africal Virtual Air Force